CANO2: Clear Boggy Creek abv Caney Creek nr Caney, OK

Data processed at Tue May 21 2019 23:50


All information presented herein is the property of the government of the United States of America and may be revised or deleted at any time without prior notice.
Dissemination of this information without the expressed written consent of the Public Affairs Office, Tulsa District U.S. Army Corps of Engineers is strictly prohibited.
These data are gathered electronically and, as presented, have not undergone any form of quality control. These data are not guaranteed to be valid or correct.
Go to home page.
Go to station list.
Go to home page.

Upstream stations:

Downstream station:
Previous Day
Next Day
Current Day
    
SHEF ID:       CANO2     Clear Boggy Creek abv Caney Cree
STATION TYPE:  
Regulating: Stage =    19.00, Flow =     2600

                STAGE  RIV-FLOW  BAT-LOAD
                   ft       cfs      volt
              Ccp-Rev   Ccp-Rev   Ccp-Rev
(US/Central)
05/21 00:00     15.81      1470     12.77
05/21 01:00     15.71      1440     12.77
05/21 02:00     15.62      1410     12.77
05/21 03:00     15.54      1380     12.77
05/21 04:00     15.47      1360     12.77
05/21 05:00     15.39      1330     12.71
05/21 06:00     15.32      1310     12.71
05/21 07:00     15.23      1280     12.71
05/21 08:00     15.25      1290     12.77
05/21 09:00     15.23      1280     13.12
05/21 10:00     15.19      1270     13.24
05/21 11:00     15.17      1260     13.18
05/21 12:00     15.20      1270     13.24
05/21 13:00     15.24      1280     13.36
05/21 14:00     15.41      1340     13.71
05/21 15:00     15.61      1410     13.48
05/21 16:00     15.93      1510     13.42
05/21 17:00     16.43      1690     13.42
05/21 18:00     17.03      1900     13.36
05/21 19:00     17.71      2140     13.30
05/21 20:00     18.36      2370     13.24
05/21 21:00     18.96      2590     13.00
05/21 22:00     19.52      2790     12.89
05/21 23:00      ----      ----      ----